sensor_id;sensor_type;location;lat;lon;timestamp;pressure;altitude;pressure_sealevel;temperature;humidity
62031;BME280;62035;52.094;5.112;2022-12-18T00:01:23;102949.25;;;-1.52;100.00
62031;BME280;62035;52.094;5.112;2022-12-18T00:03:53;102941.16;;;-1.32;100.00
62031;BME280;62035;52.094;5.112;2022-12-18T00:06:24;102927.22;;;-1.31;100.00
62031;BME280;62035;52.094;5.112;2022-12-18T00:08:55;102917.34;;;-1.14;100.00
62031;BME280;62035;52.094;5.112;2022-12-18T00:11:26;102919.41;;;-1.32;100.00
62031;BME280;62035;52.094;5.112;2022-12-18T00:13:56;102917.72;;;-1.37;100.00
62031;BME280;62035;52.094;5.112;2022-12-18T00:16:27;102900.47;;;-1.48;100.00
62031;BME280;62035;52.094;5.112;2022-12-18T00:18:56;102912.84;;;-1.61;100.00
62031;BME280;62035;52.094;5.112;2022-12-18T00:21:29;102906.47;;;-1.43;100.00
62031;BME280;62035;52.094;5.112;2022-12-18T00:23:58;102919.91;;;-1.09;100.00
62031;BME280;62035;52.094;5.112;2022-12-18T00:26:29;102915.66;;;-1.16;100.00
62031;BME280;62035;52.094;5.112;2022-12-18T00:28:59;102910.53;;;-1.22;100.00
62031;BME280;62035;52.094;5.112;2022-12-18T00:31:28;102915.84;;;-1.28;100.00
62031;BME280;62035;52.094;5.112;2022-12-18T00:33:56;102912.53;;;-1.40;100.00
62031;BME280;62035;52.094;5.112;2022-12-18T00:36:26;102922.16;;;-1.45;100.00
62031;BME280;62035;52.094;5.112;2022-12-18T00:38:57;102911.41;;;-1.22;100.00
62031;BME280;62035;52.094;5.112;2022-12-18T00:41:26;102917.50;;;-1.21;100.00
62031;BME280;62035;52.094;5.112;2022-12-18T00:44:14;102914.13;;;-1.29;100.00
62031;BME280;62035;52.094;5.112;2022-12-18T00:46:44;102906.88;;;-1.12;100.00
62031;BME280;62035;52.094;5.112;2022-12-18T00:49:13;102905.69;;;-1.50;100.00
62031;BME280;62035;52.094;5.112;2022-12-18T00:51:43;102905.72;;;-1.51;100.00
62031;BME280;62035;52.094;5.112;2022-12-18T00:54:11;102896.84;;;-1.40;100.00
62031;BME280;62035;52.094;5.112;2022-12-18T00:56:39;102899.59;;;-1.49;100.00
62031;BME280;62035;52.094;5.112;2022-12-18T00:59:07;102895.97;;;-1.39;100.00
62031;BME280;62035;52.094;5.112;2022-12-18T01:01:35;102902.75;;;-1.25;100.00
62031;BME280;62035;52.094;5.112;2022-12-18T01:04:03;102915.38;;;-1.56;100.00
62031;BME280;62035;52.094;5.112;2022-12-18T01:06:31;102929.50;;;-1.70;100.00
62031;BME280;62035;52.094;5.112;2022-12-18T01:09:00;102928.34;;;-1.50;100.00
62031;BME280;62035;52.094;5.112;2022-12-18T01:11:28;102926.59;;;-1.50;100.00
62031;BME280;62035;52.094;5.112;2022-12-18T01:13:55;102925.06;;;-1.64;100.00
62031;BME280;62035;52.094;5.112;2022-12-18T01:16:23;102924.94;;;-1.55;100.00
62031;BME280;62035;52.094;5.112;2022-12-18T01:18:52;102922.06;;;-1.37;100.00
62031;BME280;62035;52.094;5.112;2022-12-18T01:21:22;102927.50;;;-1.52;100.00
62031;BME280;62035;52.094;5.112;2022-12-18T01:23:52;102930.38;;;-1.71;100.00
62031;BME280;62035;52.094;5.112;2022-12-18T01:26:21;102930.00;;;-1.45;100.00
62031;BME280;62035;52.094;5.112;2022-12-18T01:28:49;102912.66;;;-1.49;100.00
62031;BME280;62035;52.094;5.112;2022-12-18T01:31:19;102920.78;;;-1.69;100.00
62031;BME280;62035;52.094;5.112;2022-12-18T01:33:49;102916.63;;;-1.86;100.00
62031;BME280;62035;52.094;5.112;2022-12-18T01:36:19;102923.69;;;-1.93;100.00
62031;BME280;62035;52.094;5.112;2022-12-18T01:38:48;102914.25;;;-2.03;100.00
62031;BME280;62035;52.094;5.112;2022-12-18T01:41:18;102927.19;;;-1.95;100.00
62031;BME280;62035;52.094;5.112;2022-12-18T01:43:52;102931.81;;;-2.17;100.00
62031;BME280;62035;52.094;5.112;2022-12-18T01:46:22;102926.13;;;-1.79;100.00
62031;BME280;62035;52.094;5.112;2022-12-18T01:48:56;102931.28;;;-1.75;100.00
62031;BME280;62035;52.094;5.112;2022-12-18T01:51:26;102934.00;;;-1.82;100.00
62031;BME280;62035;52.094;5.112;2022-12-18T01:53:57;102931.28;;;-1.73;100.00
62031;BME280;62035;52.094;5.112;2022-12-18T01:56:26;102934.25;;;-2.04;100.00
62031;BME280;62035;52.094;5.112;2022-12-18T01:58:59;102926.34;;;-1.97;100.00
62031;BME280;62035;52.094;5.112;2022-12-18T02:01:30;102930.44;;;-1.77;100.00
62031;BME280;62035;52.094;5.112;2022-12-18T02:04:19;102929.78;;;-1.95;100.00
62031;BME280;62035;52.094;5.112;2022-12-18T02:06:51;102937.41;;;-1.77;100.00
62031;BME280;62035;52.094;5.112;2022-12-18T02:09:33;102949.63;;;-1.79;100.00
62031;BME280;62035;52.094;5.112;2022-12-18T02:12:16;102949.91;;;-2.02;100.00
62031;BME280;62035;52.094;5.112;2022-12-18T02:14:55;102951.34;;;-1.78;100.00
62031;BME280;62035;52.094;5.112;2022-12-18T02:17:32;102952.09;;;-1.69;100.00
62031;BME280;62035;52.094;5.112;2022-12-18T02:20:10;102953.19;;;-1.86;100.00
62031;BME280;62035;52.094;5.112;2022-12-18T02:22:53;102959.50;;;-2.06;100.00
62031;BME280;62035;52.094;5.112;2022-12-18T02:28:42;102952.66;;;-2.17;100.00
62031;BME280;62035;52.094;5.112;2022-12-18T02:31:17;102949.09;;;-2.07;100.00
62031;BME280;62035;52.094;5.112;2022-12-18T02:33:52;102949.81;;;-1.96;100.00
62031;BME280;62035;52.094;5.112;2022-12-18T02:36:28;102946.47;;;-2.06;100.00
62031;BME280;62035;52.094;5.112;2022-12-18T02:39:00;102944.66;;;-2.00;100.00
62031;BME280;62035;52.094;5.112;2022-12-18T02:41:32;102943.06;;;-2.14;100.00
62031;BME280;62035;52.094;5.112;2022-12-18T02:44:07;102944.84;;;-2.19;100.00
62031;BME280;62035;52.094;5.112;2022-12-18T02:46:39;102939.75;;;-2.31;100.00
62031;BME280;62035;52.094;5.112;2022-12-18T02:49:21;102926.75;;;-2.36;100.00
62031;BME280;62035;52.094;5.112;2022-12-18T02:52:03;102938.03;;;-2.32;100.00
62031;BME280;62035;52.094;5.112;2022-12-18T02:54:49;102923.47;;;-2.51;100.00
62031;BME280;62035;52.094;5.112;2022-12-18T02:57:33;102932.19;;;-2.54;100.00
62031;BME280;62035;52.094;5.112;2022-12-18T03:00:08;102929.50;;;-2.45;100.00
62031;BME280;62035;52.094;5.112;2022-12-18T03:02:43;102918.31;;;-2.57;100.00
62031;BME280;62035;52.094;5.112;2022-12-18T03:05:16;102907.06;;;-2.64;100.00
62031;BME280;62035;52.094;5.112;2022-12-18T03:07:51;102903.63;;;-2.66;100.00
62031;BME280;62035;52.094;5.112;2022-12-18T03:10:26;102899.19;;;-2.58;100.00
62031;BME280;62035;52.094;5.112;2022-12-18T03:13:02;102904.56;;;-2.76;100.00
62031;BME280;62035;52.094;5.112;2022-12-18T03:15:35;102901.88;;;-2.65;100.00
62031;BME280;62035;52.094;5.112;2022-12-18T03:18:10;102896.72;;;-2.72;100.00
62031;BME280;62035;52.094;5.112;2022-12-18T03:20:43;102890.63;;;-2.69;100.00
62031;BME280;62035;52.094;5.112;2022-12-18T03:23:18;102884.59;;;-2.76;100.00
62031;BME280;62035;52.094;5.112;2022-12-18T03:25:52;102881.41;;;-3.07;100.00
62031;BME280;62035;52.094;5.112;2022-12-18T03:28:27;102891.75;;;-2.96;100.00
62031;BME280;62035;52.094;5.112;2022-12-18T03:31:01;102868.31;;;-2.97;100.00
62031;BME280;62035;52.094;5.112;2022-12-18T03:33:37;102875.31;;;-3.07;100.00
62031;BME280;62035;52.094;5.112;2022-12-18T03:36:09;102878.63;;;-2.85;100.00
62031;BME280;62035;52.094;5.112;2022-12-18T03:38:37;102876.94;;;-2.92;100.00
62031;BME280;62035;52.094;5.112;2022-12-18T03:41:13;102868.25;;;-2.91;100.00
62031;BME280;62035;52.094;5.112;2022-12-18T03:43:52;102865.63;;;-2.88;100.00
62031;BME280;62035;52.094;5.112;2022-12-18T03:46:30;102869.03;;;-2.82;100.00
62031;BME280;62035;52.094;5.112;2022-12-18T03:49:09;102868.25;;;-2.91;100.00
62031;BME280;62035;52.094;5.112;2022-12-18T03:51:46;102863.91;;;-2.91;100.00
62031;BME280;62035;52.094;5.112;2022-12-18T03:54:20;102863.94;;;-2.95;100.00
62031;BME280;62035;52.094;5.112;2022-12-18T03:56:54;102858.69;;;-2.91;100.00
62031;BME280;62035;52.094;5.112;2022-12-18T03:59:27;102845.66;;;-2.89;100.00
62031;BME280;62035;52.094;5.112;2022-12-18T04:01:57;102844.75;;;-2.84;100.00
62031;BME280;62035;52.094;5.112;2022-12-18T04:04:28;102845.75;;;-2.98;100.00
62031;BME280;62035;52.094;5.112;2022-12-18T04:06:58;102842.38;;;-3.11;100.00
62031;BME280;62035;52.094;5.112;2022-12-18T04:09:27;102832.97;;;-3.26;100.00
62031;BME280;62035;52.094;5.112;2022-12-18T04:11:57;102820.81;;;-3.25;100.00
62031;BME280;62035;52.094;5.112;2022-12-18T04:14:24;102820.63;;;-3.07;100.00
62031;BME280;62035;52.094;5.112;2022-12-18T04:16:53;102821.59;;;-3.19;100.00
62031;BME280;62035;52.094;5.112;2022-12-18T04:19:21;102826.91;;;-3.28;100.00
62031;BME280;62035;52.094;5.112;2022-12-18T04:21:49;102823.47;;;-3.33;100.00
62031;BME280;62035;52.094;5.112;2022-12-18T04:24:16;102826.91;;;-3.29;100.00
62031;BME280;62035;52.094;5.112;2022-12-18T04:26:44;102832.88;;;-3.18;100.00
62031;BME280;62035;52.094;5.112;2022-12-18T04:29:12;102834.69;;;-3.25;100.00
62031;BME280;62035;52.094;5.112;2022-12-18T04:31:39;102837.34;;;-3.29;100.00
62031;BME280;62035;52.094;5.112;2022-12-18T04:34:08;102842.59;;;-3.36;100.00
62031;BME280;62035;52.094;5.112;2022-12-18T04:36:36;102853.84;;;-3.33;100.00
62031;BME280;62035;52.094;5.112;2022-12-18T04:39:04;102847.78;;;-3.36;100.00
62031;BME280;62035;52.094;5.112;2022-12-18T04:41:31;102851.34;;;-3.47;100.00
62031;BME280;62035;52.094;5.112;2022-12-18T04:43:59;102847.00;;;-3.47;100.00
62031;BME280;62035;52.094;5.112;2022-12-18T04:46:26;102844.50;;;-3.60;100.00
62031;BME280;62035;52.094;5.112;2022-12-18T04:48:54;102855.72;;;-3.57;100.00
62031;BME280;62035;52.094;5.112;2022-12-18T04:51:23;102863.59;;;-3.63;100.00
62031;BME280;62035;52.094;5.112;2022-12-18T04:53:51;102878.34;;;-3.62;100.00
62031;BME280;62035;52.094;5.112;2022-12-18T04:56:19;102847.16;;;-3.71;100.00
62031;BME280;62035;52.094;5.112;2022-12-18T04:58:47;102875.66;;;-3.54;100.00
62031;BME280;62035;52.094;5.112;2022-12-18T05:01:16;102871.41;;;-3.60;100.00
62031;BME280;62035;52.094;5.112;2022-12-18T05:03:44;102872.28;;;-3.61;100.00
62031;BME280;62035;52.094;5.112;2022-12-18T05:06:12;102871.47;;;-3.72;100.00
62031;BME280;62035;52.094;5.112;2022-12-18T05:08:41;102873.09;;;-3.59;100.00
62031;BME280;62035;52.094;5.112;2022-12-18T05:11:11;102886.97;;;-3.57;100.00
62031;BME280;62035;52.094;5.112;2022-12-18T05:13:41;102880.09;;;-3.67;100.00
62031;BME280;62035;52.094;5.112;2022-12-18T05:16:10;102880.13;;;-3.68;100.00
62031;BME280;62035;52.094;5.112;2022-12-18T05:18:39;102880.94;;;-3.60;100.00
62031;BME280;62035;52.094;5.112;2022-12-18T05:21:07;102869.78;;;-3.85;100.00
62031;BME280;62035;52.094;5.112;2022-12-18T05:23:35;102890.56;;;-3.75;100.00
62031;BME280;62035;52.094;5.112;2022-12-18T05:26:05;102889.50;;;-3.46;100.00
62031;BME280;62035;52.094;5.112;2022-12-18T05:28:35;102902.59;;;-3.58;100.00
62031;BME280;62035;52.094;5.112;2022-12-18T05:31:04;102887.75;;;-3.44;100.00
62031;BME280;62035;52.094;5.112;2022-12-18T05:33:34;102890.38;;;-3.46;100.00
62031;BME280;62035;52.094;5.112;2022-12-18T05:36:03;102878.28;;;-3.59;100.00
62031;BME280;62035;52.094;5.112;2022-12-18T05:38:34;102885.19;;;-3.50;100.00
62031;BME280;62035;52.094;5.112;2022-12-18T05:41:05;102880.88;;;-3.54;100.00
62031;BME280;62035;52.094;5.112;2022-12-18T05:43:34;102869.59;;;-3.56;100.00
62031;BME280;62035;52.094;5.112;2022-12-18T05:46:05;102870.41;;;-3.45;100.00
62031;BME280;62035;52.094;5.112;2022-12-18T05:48:34;102866.91;;;-3.40;100.00
62031;BME280;62035;52.094;5.112;2022-12-18T05:51:06;102865.09;;;-3.27;100.00
62031;BME280;62035;52.094;5.112;2022-12-18T05:53:36;102862.59;;;-3.44;100.00
62031;BME280;62035;52.094;5.112;2022-12-18T05:56:07;102856.47;;;-3.37;100.00
62031;BME280;62035;52.094;5.112;2022-12-18T05:58:36;102848.66;;;-3.37;100.00
62031;BME280;62035;52.094;5.112;2022-12-18T06:01:09;102816.75;;;-3.60;100.00
62031;BME280;62035;52.094;5.112;2022-12-18T06:03:39;102846.06;;;-3.35;100.00
62031;BME280;62035;52.094;5.112;2022-12-18T06:06:13;102846.19;;;-3.56;100.00
62031;BME280;62035;52.094;5.112;2022-12-18T06:08:41;102833.25;;;-3.64;100.00
62031;BME280;62035;52.094;5.112;2022-12-18T06:11:10;102845.41;;;-3.66;100.00
62031;BME280;62035;52.094;5.112;2022-12-18T06:13:38;102836.66;;;-3.59;100.00
62031;BME280;62035;52.094;5.112;2022-12-18T06:16:06;102839.34;;;-3.68;100.00
62031;BME280;62035;52.094;5.112;2022-12-18T06:18:35;102830.66;;;-3.64;100.00
62031;BME280;62035;52.094;5.112;2022-12-18T06:21:02;102825.44;;;-3.62;100.00
62031;BME280;62035;52.094;5.112;2022-12-18T06:23:30;102829.69;;;-3.52;100.00
62031;BME280;62035;52.094;5.112;2022-12-18T06:25:58;102830.63;;;-3.61;100.00
62031;BME280;62035;52.094;5.112;2022-12-18T06:28:27;102835.00;;;-3.66;100.00
62031;BME280;62035;52.094;5.112;2022-12-18T06:30:54;102830.63;;;-3.61;100.00
62031;BME280;62035;52.094;5.112;2022-12-18T06:33:26;102830.66;;;-3.64;100.00
62031;BME280;62035;52.094;5.112;2022-12-18T06:35:54;102813.31;;;-3.66;100.00
62031;BME280;62035;52.094;5.112;2022-12-18T06:38:26;102814.91;;;-3.47;100.00
62031;BME280;62035;52.094;5.112;2022-12-18T06:40:54;102817.38;;;-3.29;100.00
62031;BME280;62035;52.094;5.112;2022-12-18T06:43:21;102808.56;;;-3.16;100.00
62031;BME280;62035;52.094;5.112;2022-12-18T06:45:50;102801.75;;;-3.27;100.00
62031;BME280;62035;52.094;5.112;2022-12-18T06:48:19;102806.91;;;-3.24;100.00
62031;BME280;62035;52.094;5.112;2022-12-18T06:50:47;102783.47;;;-3.23;100.00
62031;BME280;62035;52.094;5.112;2022-12-18T06:53:14;102788.72;;;-3.27;100.00
62031;BME280;62035;52.094;5.112;2022-12-18T06:55:42;102777.38;;;-3.20;100.00
62031;BME280;62035;52.094;5.112;2022-12-18T06:58:10;102791.38;;;-3.35;100.00
62031;BME280;62035;52.094;5.112;2022-12-18T07:00:38;102795.63;;;-3.22;100.00
62031;BME280;62035;52.094;5.112;2022-12-18T07:03:07;102787.16;;;-3.51;100.00
62031;BME280;62035;52.094;5.112;2022-12-18T07:05:39;102781.88;;;-3.38;100.00
62031;BME280;62035;52.094;5.112;2022-12-18T07:08:07;102781.84;;;-3.36;100.00
62031;BME280;62035;52.094;5.112;2022-12-18T07:10:41;102771.66;;;-3.62;100.00
62031;BME280;62035;52.094;5.112;2022-12-18T07:13:09;102764.53;;;-3.42;100.00
62031;BME280;62035;52.094;5.112;2022-12-18T07:15:37;102773.22;;;-3.41;100.00
62031;BME280;62035;52.094;5.112;2022-12-18T07:18:05;102769.06;;;-3.62;100.00
62031;BME280;62035;52.094;5.112;2022-12-18T07:20:34;102759.31;;;-3.40;100.00
62031;BME280;62035;52.094;5.112;2022-12-18T07:23:01;102774.06;;;-3.39;100.00
62031;BME280;62035;52.094;5.112;2022-12-18T07:25:29;102766.28;;;-3.42;100.00
62031;BME280;62035;52.094;5.112;2022-12-18T07:28:00;102768.91;;;-3.47;100.00
62031;BME280;62035;52.094;5.112;2022-12-18T07:30:27;102762.94;;;-3.58;100.00
62031;BME280;62035;52.094;5.112;2022-12-18T07:32:55;102750.84;;;-3.63;100.00
62031;BME280;62035;52.094;5.112;2022-12-18T07:35:24;102748.09;;;-3.48;100.00
62031;BME280;62035;52.094;5.112;2022-12-18T07:37:52;102739.50;;;-3.58;100.00
62031;BME280;62035;52.094;5.112;2022-12-18T07:40:19;102732.56;;;-3.56;100.00
62031;BME280;62035;52.094;5.112;2022-12-18T07:42:47;102741.97;;;-3.40;100.00
62031;BME280;62035;52.094;5.112;2022-12-18T07:45:14;102737.63;;;-3.38;100.00
62031;BME280;62035;52.094;5.112;2022-12-18T07:47:42;102733.25;;;-3.36;100.00
62031;BME280;62035;52.094;5.112;2022-12-18T07:50:10;102729.06;;;-3.55;100.00
62031;BME280;62035;52.094;5.112;2022-12-18T07:52:40;102726.44;;;-3.50;100.00
62031;BME280;62035;52.094;5.112;2022-12-18T07:55:08;102722.06;;;-3.47;100.00
62031;BME280;62035;52.094;5.112;2022-12-18T07:57:36;102705.63;;;-3.52;100.00
62031;BME280;62035;52.094;5.112;2022-12-18T08:00:04;102708.19;;;-3.46;100.00
62031;BME280;62035;52.094;5.112;2022-12-18T08:02:33;102704.63;;;-3.36;100.00
62031;BME280;62035;52.094;5.112;2022-12-18T08:05:00;102716.69;;;-3.25;100.00
62031;BME280;62035;52.094;5.112;2022-12-18T08:07:28;102713.19;;;-3.24;100.00
62031;BME280;62035;52.094;5.112;2022-12-18T08:09:57;102711.38;;;-3.19;100.00
62031;BME280;62035;52.094;5.112;2022-12-18T08:12:25;102726.78;;;-2.98;100.00
62031;BME280;62035;52.094;5.112;2022-12-18T08:14:53;102713.72;;;-2.93;100.00
62031;BME280;62035;52.094;5.112;2022-12-18T08:17:20;102730.28;;;-2.99;100.00
62031;BME280;62035;52.094;5.112;2022-12-18T08:19:48;102738.94;;;-2.97;100.00
62031;BME280;62035;52.094;5.112;2022-12-18T08:22:15;102735.50;;;-3.02;100.00
62031;BME280;62035;52.094;5.112;2022-12-18T08:24:43;102745.00;;;-2.96;100.00
62031;BME280;62035;52.094;5.112;2022-12-18T08:27:13;102743.16;;;-2.87;100.00
62031;BME280;62035;52.094;5.112;2022-12-18T08:29:40;102732.19;;;-3.16;100.00
62031;BME280;62035;52.094;5.112;2022-12-18T08:32:08;102739.81;;;-2.99;100.00
62031;BME280;62035;52.094;5.112;2022-12-18T08:34:36;102756.06;;;-2.78;100.00
62031;BME280;62035;52.094;5.112;2022-12-18T08:37:04;102740.78;;;-3.07;100.00
62031;BME280;62035;52.094;5.112;2022-12-18T08:39:31;102730.25;;;-2.96;100.00
62031;BME280;62035;52.094;5.112;2022-12-18T08:42:00;102725.03;;;-2.94;100.00
62031;BME280;62035;52.094;5.112;2022-12-18T08:44:46;102708.63;;;-3.04;100.00
62031;BME280;62035;52.094;5.112;2022-12-18T08:47:14;102712.75;;;-2.85;100.00
62031;BME280;62035;52.094;5.112;2022-12-18T08:49:42;102715.22;;;-2.74;100.00
62031;BME280;62035;52.094;5.112;2022-12-18T08:52:09;102707.50;;;-2.82;100.00
62031;BME280;62035;52.094;5.112;2022-12-18T08:54:44;102713.47;;;-2.75;100.00
62031;BME280;62035;52.094;5.112;2022-12-18T08:57:12;102722.94;;;-2.68;100.00
62031;BME280;62035;52.094;5.112;2022-12-18T08:59:39;102704.63;;;-2.60;100.00
62031;BME280;62035;52.094;5.112;2022-12-18T09:02:10;102704.63;;;-2.60;100.00
62031;BME280;62035;52.094;5.112;2022-12-18T09:04:38;102709.69;;;-2.48;100.00
62031;BME280;62035;52.094;5.112;2022-12-18T09:07:05;102708.94;;;-2.59;100.00
62031;BME280;62035;52.094;5.112;2022-12-18T09:09:33;102720.00;;;-2.41;100.00
62031;BME280;62035;52.094;5.112;2022-12-18T09:12:01;102727.78;;;-2.39;100.00
62031;BME280;62035;52.094;5.112;2022-12-18T09:14:28;102715.59;;;-2.37;100.00
62031;BME280;62035;52.094;5.112;2022-12-18T09:16:56;102710.97;;;-2.17;100.00
62031;BME280;62035;52.094;5.112;2022-12-18T09:19:25;102726.91;;;-2.40;100.00
62031;BME280;62035;52.094;5.112;2022-12-18T09:21:53;102730.25;;;-2.28;100.00
62031;BME280;62035;52.094;5.112;2022-12-18T09:24:20;102721.47;;;-2.23;100.00
62031;BME280;62035;52.094;5.112;2022-12-18T09:26:52;102729.09;;;-2.06;100.00
62031;BME280;62035;52.094;5.112;2022-12-18T09:29:21;102720.19;;;-1.94;100.00
62031;BME280;62035;52.094;5.112;2022-12-18T09:31:48;102713.91;;;-1.83;100.00
62031;BME280;62035;52.094;5.112;2022-12-18T09:34:19;102702.47;;;-1.74;100.00
62031;BME280;62035;52.094;5.112;2022-12-18T09:36:49;102692.00;;;-1.71;100.00
62031;BME280;62035;52.094;5.112;2022-12-18T09:39:18;102685.00;;;-1.69;100.00
62031;BME280;62035;52.094;5.112;2022-12-18T09:41:47;102687.66;;;-1.72;100.00
62031;BME280;62035;52.094;5.112;2022-12-18T09:44:25;102691.41;;;-1.38;100.00
62031;BME280;62035;52.094;5.112;2022-12-18T09:47:07;102692.94;;;-1.26;100.00
62031;BME280;62035;52.094;5.112;2022-12-18T09:49:43;102686.13;;;-1.35;100.00
62031;BME280;62035;52.094;5.112;2022-12-18T09:52:18;102679.91;;;-1.27;100.00
62031;BME280;62035;52.094;5.112;2022-12-18T09:54:52;102673.38;;;-1.07;100.00
62031;BME280;62035;52.094;5.112;2022-12-18T09:57:24;102672.53;;;-1.07;100.00
62031;BME280;62035;52.094;5.112;2022-12-18T09:59:55;102662.97;;;-1.08;100.00
62031;BME280;62035;52.094;5.112;2022-12-18T10:02:26;102665.41;;;-0.99;100.00
62031;BME280;62035;52.094;5.112;2022-12-18T10:05:06;102661.00;;;-0.97;100.00
62031;BME280;62035;52.094;5.112;2022-12-18T10:07:45;102673.56;;;-0.73;100.00
62031;BME280;62035;52.094;5.112;2022-12-18T10:10:27;102672.16;;;-0.89;100.00
62031;BME280;62035;52.094;5.112;2022-12-18T10:13:11;102668.41;;;-0.77;100.00
62031;BME280;62035;52.094;5.112;2022-12-18T10:15:58;102675.19;;;-1.10;100.00
62031;BME280;62035;52.094;5.112;2022-12-18T10:18:48;102661.19;;;-1.06;100.00
62031;BME280;62035;52.094;5.112;2022-12-18T10:21:32;102667.50;;;-0.75;100.00
62031;BME280;62035;52.094;5.112;2022-12-18T10:24:17;102661.34;;;-0.72;100.00
62031;BME280;62035;52.094;5.112;2022-12-18T10:26:53;102661.28;;;-0.69;100.00
62031;BME280;62035;52.094;5.112;2022-12-18T10:29:28;102640.31;;;-0.66;100.00
62031;BME280;62035;52.094;5.112;2022-12-18T10:31:55;102648.72;;;-0.52;100.00
62031;BME280;62035;52.094;5.112;2022-12-18T10:34:23;102640.00;;;-0.52;100.00
62031;BME280;62035;52.094;5.112;2022-12-18T10:36:52;102626.88;;;-0.49;100.00
62031;BME280;62035;52.094;5.112;2022-12-18T10:39:23;102624.59;;;-0.27;100.00
62031;BME280;62035;52.094;5.112;2022-12-18T10:42:09;102636.09;;;-0.35;100.00
62031;BME280;62035;52.094;5.112;2022-12-18T10:44:40;102636.03;;;0.04;100.00
62031;BME280;62035;52.094;5.112;2022-12-18T10:47:12;102631.97;;;-0.08;100.00
62031;BME280;62035;52.094;5.112;2022-12-18T10:49:48;102645.53;;;0.08;100.00
62031;BME280;62035;52.094;5.112;2022-12-18T10:52:19;102627.75;;;0.21;100.00
62031;BME280;62035;52.094;5.112;2022-12-18T10:54:52;102611.78;;;-0.03;100.00
62031;BME280;62035;52.094;5.112;2022-12-18T10:57:33;102602.25;;;0.29;100.00
62031;BME280;62035;52.094;5.112;2022-12-18T11:00:23;102602.63;;;0.14;100.00
62031;BME280;62035;52.094;5.112;2022-12-18T11:02:54;102607.47;;;0.29;100.00
62031;BME280;62035;52.094;5.112;2022-12-18T11:05:28;102601.34;;;0.30;100.00
62031;BME280;62035;52.094;5.112;2022-12-18T11:07:58;102595.91;;;0.04;100.00
62031;BME280;62035;52.094;5.112;2022-12-18T11:10:31;102586.78;;;0.20;100.00
62031;BME280;62035;52.094;5.112;2022-12-18T11:13:11;102589.59;;;0.12;100.00
62031;BME280;62035;52.094;5.112;2022-12-18T11:15:44;102582.31;;;0.23;100.00
62031;BME280;62035;52.094;5.112;2022-12-18T11:18:21;102585.41;;;0.39;100.00
62031;BME280;62035;52.094;5.112;2022-12-18T11:20:58;102585.13;;;0.48;100.00
62031;BME280;62035;52.094;5.112;2022-12-18T11:23:34;102577.13;;;0.53;100.00
62031;BME280;62035;52.094;5.112;2022-12-18T11:26:05;102574.59;;;0.81;100.00
62031;BME280;62035;52.094;5.112;2022-12-18T11:28:37;102582.28;;;0.87;100.00
62031;BME280;62035;52.094;5.112;2022-12-18T11:31:23;102573.31;;;0.94;100.00
62031;BME280;62035;52.094;5.112;2022-12-18T11:33:58;102577.66;;;0.95;100.00
62031;BME280;62035;52.094;5.112;2022-12-18T11:36:32;102575.81;;;0.98;100.00
62031;BME280;62035;52.094;5.112;2022-12-18T11:39:15;102573.63;;;0.83;100.00
62031;BME280;62035;52.094;5.112;2022-12-18T11:41:51;102568.25;;;0.88;100.00
62031;BME280;62035;52.094;5.112;2022-12-18T11:44:46;102554.16;;;0.92;100.00
62031;BME280;62035;52.094;5.112;2022-12-18T11:47:26;102565.38;;;0.97;100.00
62031;BME280;62035;52.094;5.112;2022-12-18T11:50:03;102559.50;;;0.89;100.00
62031;BME280;62035;52.094;5.112;2022-12-18T11:52:40;102545.31;;;0.66;100.00
62031;BME280;62035;52.094;5.112;2022-12-18T11:55:11;102537.75;;;0.85;100.00
62031;BME280;62035;52.094;5.112;2022-12-18T11:57:50;102526.88;;;0.99;100.00
62031;BME280;62035;52.094;5.112;2022-12-18T12:00:26;102524.25;;;0.99;100.00
62031;BME280;62035;52.094;5.112;2022-12-18T12:03:10;102513.31;;;0.85;100.00
62031;BME280;62035;52.094;5.112;2022-12-18T12:06:01;102510.09;;;1.05;100.00
62031;BME280;62035;52.094;5.112;2022-12-18T12:08:48;102496.66;;;1.15;100.00
62031;BME280;62035;52.094;5.112;2022-12-18T12:11:35;102504.44;;;1.18;100.00
62031;BME280;62035;52.094;5.112;2022-12-18T12:14:46;102498.44;;;1.41;100.00
62031;BME280;62035;52.094;5.112;2022-12-18T12:17:30;102495.91;;;1.12;100.00
62031;BME280;62035;52.094;5.112;2022-12-18T12:20:10;102472.59;;;1.03;100.00
62031;BME280;62035;52.094;5.112;2022-12-18T12:22:47;102485.66;;;1.30;100.00
62031;BME280;62035;52.094;5.112;2022-12-18T12:25:31;102492.06;;;1.22;100.00
62031;BME280;62035;52.094;5.112;2022-12-18T12:28:12;102483.34;;;1.21;100.00
62031;BME280;62035;52.094;5.112;2022-12-18T12:30:55;102483.31;;;0.95;100.00
62031;BME280;62035;52.094;5.112;2022-12-18T12:33:37;102481.88;;;1.13;100.00
62031;BME280;62035;52.094;5.112;2022-12-18T12:36:22;102472.41;;;1.35;100.00
62031;BME280;62035;52.094;5.112;2022-12-18T12:39:02;102470.34;;;1.18;100.00
62031;BME280;62035;52.094;5.112;2022-12-18T12:41:36;102461.63;;;1.44;100.00
62031;BME280;62035;52.094;5.112;2022-12-18T12:44:25;102446.44;;;1.54;100.00
62031;BME280;62035;52.094;5.112;2022-12-18T12:47:01;102455.41;;;1.47;100.00
62031;BME280;62035;52.094;5.112;2022-12-18T12:49:40;102456.47;;;1.41;100.00
62031;BME280;62035;52.094;5.112;2022-12-18T12:52:16;102434.53;;;1.44;100.00
62031;BME280;62035;52.094;5.112;2022-12-18T12:54:49;102448.34;;;1.49;100.00
62031;BME280;62035;52.094;5.112;2022-12-18T12:57:21;102465.28;;;1.39;100.00
62031;BME280;62035;52.094;5.112;2022-12-18T13:00:00;102445.63;;;1.52;100.00
62031;BME280;62035;52.094;5.112;2022-12-18T13:02:42;102441.75;;;1.87;100.00
62031;BME280;62035;52.094;5.112;2022-12-18T13:05:21;102448.28;;;1.50;100.00
62031;BME280;62035;52.094;5.112;2022-12-18T13:07:56;102438.59;;;1.77;100.00
62031;BME280;62035;52.094;5.112;2022-12-18T13:10:38;102439.19;;;1.85;100.00
62031;BME280;62035;52.094;5.112;2022-12-18T13:13:09;102430.03;;;1.72;100.00